Time;durP1;ratioP1;P1;durP2;ratioP2;P2;SDS_P1;SDS_P2;PMS_P1;PMS_P2;Temp;Humidity;BMP_temperature;BMP_pressure;BME280_temperature;BME280_humidity;BME280_pressure;Samples;Min_cycle;Max_cycle;Signal;HPM_P1;HPM_P2
2022/03/26 00:00:44;;;;;;;95.93;44.22;;;;;;;;;;5038437;28;20055;-89
2022/03/26 00:03:10;;;;;;;90.22;43.53;;;;;;;;;;5039574;28;20030;-90
2022/03/26 00:05:36;;;;;;;86.60;41.17;;;;;;;;;;5038276;28;20025;-89
2022/03/26 00:08:02;;;;;;;80.70;40.15;;;;;;;;;;5039036;28;20104;-90
2022/03/26 00:10:28;;;;;;;70.82;39.65;;;;;;;;;;5038529;28;20113;-89
2022/03/26 00:12:56;;;;;;;72.85;39.28;;;;;;;;;;5039446;28;20026;-90
2022/03/26 00:15:23;;;;;;;72.55;38.30;;;;;;;;;;5039181;28;20025;-91
2022/03/26 00:17:50;;;;;;;75.47;40.13;;;;;;;;;;5038109;28;20372;-90
2022/03/26 00:20:16;;;;;;;84.93;38.65;;;;;;;;;;5038887;28;20026;-90
2022/03/26 00:22:42;;;;;;;67.93;37.83;;;;;;;;;;5039104;28;20025;-90
2022/03/26 00:25:10;;;;;;;63.63;35.97;;;;;;;;;;5038998;28;20096;-92
2022/03/26 00:27:36;;;;;;;70.32;38.33;;;;;;;;;;5038995;28;20053;-90
2022/03/26 00:30:04;;;;;;;71.97;35.65;;;;;;;;;;5038293;28;20041;-90
2022/03/26 00:32:30;;;;;;;65.20;35.13;;;;;;;;;;5037339;28;20116;-90
2022/03/26 00:34:57;;;;;;;68.35;35.20;;;;;;;;;;5038660;28;20032;-90
2022/03/26 00:37:24;;;;;;;64.18;34.20;;;;;;;;;;5038992;28;20662;-90
2022/03/26 00:39:50;;;;;;;64.45;33.60;;;;;;;;;;5038660;28;20026;-90
2022/03/26 00:42:16;;;;;;;63.75;33.13;;;;;;;;;;5038852;28;20022;-89
2022/03/26 00:44:42;;;;;;;64.07;33.50;;;;;;;;;;5037693;28;20116;-90
2022/03/26 00:47:08;;;;;;;71.93;38.92;;;;;;;;;;5038573;28;20036;-90
2022/03/26 00:49:35;;;;;;;75.10;37.80;;;;;;;;;;5038807;28;20063;-91
2022/03/26 00:52:01;;;;;;;66.07;38.08;;;;;;;;;;5038486;28;20041;-90
2022/03/26 00:54:27;;;;;;;76.70;37.78;;;;;;;;;;5037711;28;20025;-90
2022/03/26 00:56:53;;;;;;;77.60;36.05;;;;;;;;;;5038316;28;20049;-90
2022/03/26 00:59:20;;;;;;;66.65;34.33;;;;;;;;;;5038413;28;20409;-91
2022/03/26 01:01:46;;;;;;;64.85;34.42;;;;;;;;;;5037371;28;20049;-91
2022/03/26 01:04:12;;;;;;;66.32;34.97;;;;;;;;;;5038457;28;20029;-91
2022/03/26 01:06:38;;;;;;;70.82;35.38;;;;;;;;;;5038091;28;20071;-92
2022/03/26 01:09:04;;;;;;;65.68;36.78;;;;;;;;;;5037370;28;20423;-91
2022/03/26 01:11:30;;;;;;;67.28;34.55;;;;;;;;;;5037184;28;20034;-91
2022/03/26 01:13:56;;;;;;;64.50;33.92;;;;;;;;;;5038077;28;20116;-91
2022/03/26 01:16:23;;;;;;;63.10;34.47;;;;;;;;;;5037388;28;20432;-91
2022/03/26 01:18:50;;;;;;;55.92;31.80;;;;;;;;;;5037196;28;20029;-92
2022/03/26 01:21:16;;;;;;;57.20;32.63;;;;;;;;;;5037748;28;20033;-90
2022/03/26 01:23:44;;;;;;;56.67;32.60;;;;;;;;;;5036979;28;20028;-90
2022/03/26 01:26:10;;;;;;;55.28;31.17;;;;;;;;;;5037971;28;20036;-91
2022/03/26 01:28:36;;;;;;;52.13;30.08;;;;;;;;;;5037071;28;20029;-91
2022/03/26 01:31:02;;;;;;;55.60;30.13;;;;;;;;;;5037931;28;20017;-91
2022/03/26 01:33:29;;;;;;;56.33;31.05;;;;;;;;;;5037010;28;20028;-89
2022/03/26 01:35:55;;;;;;;57.10;30.75;;;;;;;;;;5036510;28;20040;-91
2022/03/26 01:38:21;;;;;;;61.70;31.65;;;;;;;;;;5037948;28;20025;-90
2022/03/26 01:40:47;;;;;;;53.20;29.40;;;;;;;;;;5037657;28;20053;-91
2022/03/26 01:43:13;;;;;;;57.67;29.95;;;;;;;;;;5037435;28;20415;-89
2022/03/26 01:45:39;;;;;;;59.17;30.80;;;;;;;;;;5036556;28;20017;-89
2022/03/26 01:48:05;;;;;;;56.60;31.65;;;;;;;;;;5037746;28;20052;-89
2022/03/26 01:50:31;;;;;;;61.70;30.95;;;;;;;;;;5020134;28;20057;-90
2022/03/26 01:52:58;;;;;;;58.83;30.83;;;;;;;;;;5036908;28;20083;-89
2022/03/26 01:55:25;;;;;;;64.47;30.95;;;;;;;;;;5037738;28;20032;-90
2022/03/26 01:57:51;;;;;;;53.42;29.45;;;;;;;;;;5037420;28;20034;-91
2022/03/26 02:00:18;;;;;;;59.75;31.88;;;;;;;;;;5037572;28;20025;-91
2022/03/26 02:02:44;;;;;;;64.03;32.30;;;;;;;;;;5037292;28;20025;-90
2022/03/26 02:05:11;;;;;;;67.55;33.55;;;;;;;;;;5037540;28;20048;-90
2022/03/26 02:07:41;;;;;;;69.80;34.40;;;;;;;;;;5037429;28;20069;-91
2022/03/26 02:10:08;;;;;;;62.47;34.25;;;;;;;;;;5037592;28;20025;-92
2022/03/26 02:12:34;;;;;;;74.75;35.58;;;;;;;;;;5037521;28;20351;-91
2022/03/26 02:15:00;;;;;;;65.32;35.38;;;;;;;;;;5037486;28;20091;-91
2022/03/26 02:17:26;;;;;;;68.20;35.05;;;;;;;;;;5037295;28;20149;-91
2022/03/26 02:20:04;;;;;;;73.00;36.65;;;;;;;;;;5037472;28;20077;-91
2022/03/26 02:22:31;;;;;;;66.10;34.85;;;;;;;;;;5036580;28;20026;-92
2022/03/26 02:24:57;;;;;;;66.65;32.97;;;;;;;;;;5036597;28;20408;-91
2022/03/26 02:27:24;;;;;;;64.57;33.38;;;;;;;;;;5037640;28;20033;-92
2022/03/26 02:29:50;;;;;;;64.18;32.80;;;;;;;;;;5037429;28;20041;-91
2022/03/26 02:32:18;;;;;;;59.75;33.72;;;;;;;;;;5037107;28;20052;-90
2022/03/26 02:34:44;;;;;;;60.90;33.90;;;;;;;;;;5037176;28;20022;-91
2022/03/26 02:37:10;;;;;;;71.28;33.75;;;;;;;;;;5036137;28;20037;-90
2022/03/26 02:39:36;;;;;;;69.63;33.45;;;;;;;;;;5037339;28;20045;-91
2022/03/26 02:42:02;;;;;;;72.32;37.63;;;;;;;;;;5036237;28;20017;-90
2022/03/26 02:44:28;;;;;;;76.82;37.60;;;;;;;;;;5036358;28;20029;-89
2022/03/26 02:46:55;;;;;;;67.43;36.40;;;;;;;;;;5036390;28;20033;-91
2022/03/26 02:49:21;;;;;;;70.80;36.95;;;;;;;;;;5037381;28;20041;-90
2022/03/26 02:51:47;;;;;;;75.00;38.72;;;;;;;;;;5035898;28;20112;-90
2022/03/26 02:54:19;;;;;;;64.60;34.65;;;;;;;;;;5037075;28;20029;-88
2022/03/26 02:56:46;;;;;;;69.03;34.88;;;;;;;;;;5038785;28;20061;-89
2022/03/26 02:59:12;;;;;;;72.38;34.65;;;;;;;;;;5040537;28;20041;-89
2022/03/26 03:01:38;;;;;;;69.35;36.25;;;;;;;;;;5039668;28;20112;-92
2022/03/26 03:04:04;;;;;;;66.90;35.03;;;;;;;;;;5039866;28;20029;-90
2022/03/26 03:06:31;;;;;;;63.63;34.28;;;;;;;;;;5039478;28;20025;-92
2022/03/26 03:08:57;;;;;;;71.10;35.00;;;;;;;;;;5040469;28;20057;-91
2022/03/26 03:11:23;;;;;;;67.40;34.83;;;;;;;;;;5040160;28;20030;-91
2022/03/26 03:13:49;;;;;;;62.72;32.50;;;;;;;;;;5039408;28;20033;-90
2022/03/26 03:16:15;;;;;;;56.65;31.30;;;;;;;;;;5039849;28;20120;-91
2022/03/26 03:18:42;;;;;;;59.85;31.17;;;;;;;;;;5040053;28;20327;-91
2022/03/26 03:21:08;;;;;;;65.68;30.88;;;;;;;;;;5040087;28;20071;-91
2022/03/26 03:23:34;;;;;;;60.58;30.00;;;;;;;;;;5039494;28;20026;-92
2022/03/26 03:26:00;;;;;;;59.83;31.13;;;;;;;;;;5040013;28;20029;-91
2022/03/26 03:28:26;;;;;;;64.38;32.25;;;;;;;;;;5040180;28;20396;-90
2022/03/26 03:30:53;;;;;;;56.80;31.02;;;;;;;;;;5039172;28;20035;-90
2022/03/26 03:33:19;;;;;;;61.95;31.33;;;;;;;;;;5039957;28;20063;-91
2022/03/26 03:35:46;;;;;;;64.90;33.65;;;;;;;;;;5039817;28;20037;-91
2022/03/26 03:38:12;;;;;;;67.10;32.70;;;;;;;;;;5038919;28;20068;-90
2022/03/26 03:40:38;;;;;;;66.70;33.90;;;;;;;;;;5040018;28;20025;-90
2022/03/26 03:43:05;;;;;;;63.25;33.42;;;;;;;;;;5039115;28;20032;-91
2022/03/26 03:45:31;;;;;;;61.88;32.17;;;;;;;;;;5039678;28;20132;-91
2022/03/26 03:47:57;;;;;;;63.40;32.10;;;;;;;;;;5038997;28;20068;-91
2022/03/26 03:50:23;;;;;;;63.28;32.92;;;;;;;;;;5038779;28;20022;-91
2022/03/26 03:52:49;;;;;;;60.22;31.45;;;;;;;;;;5039916;28;20438;-91
2022/03/26 03:55:16;;;;;;;64.10;31.63;;;;;;;;;;5039606;28;20408;-91
2022/03/26 03:57:43;;;;;;;62.70;32.58;;;;;;;;;;5039491;28;20432;-91
2022/03/26 04:00:10;;;;;;;64.90;31.38;;;;;;;;;;5038678;28;20219;-90
2022/03/26 04:02:36;;;;;;;59.30;31.35;;;;;;;;;;5039550;28;20036;-90
2022/03/26 04:05:02;;;;;;;61.90;30.63;;;;;;;;;;5039509;28;20101;-90
2022/03/26 04:07:28;;;;;;;64.43;31.52;;;;;;;;;;5038479;28;20108;-90
2022/03/26 04:09:54;;;;;;;64.28;32.35;;;;;;;;;;5039420;28;20068;-90
2022/03/26 04:12:20;;;;;;;59.72;31.52;;;;;;;;;;5039412;28;20025;-90
2022/03/26 04:14:46;;;;;;;63.80;31.63;;;;;;;;;;5038503;28;20029;-91
2022/03/26 04:17:12;;;;;;;63.50;33.25;;;;;;;;;;5038173;28;20024;-92
2022/03/26 04:19:39;;;;;;;65.72;32.30;;;;;;;;;;5038961;28;20068;-89
2022/03/26 04:22:06;;;;;;;62.90;32.50;;;;;;;;;;5038101;28;20022;-91
2022/03/26 04:24:32;;;;;;;62.55;30.88;;;;;;;;;;5039048;28;20067;-90
2022/03/26 04:26:58;;;;;;;58.40;31.70;;;;;;;;;;5038181;28;20332;-91
2022/03/26 04:29:24;;;;;;;63.67;32.85;;;;;;;;;;5038964;28;20037;-89
2022/03/26 04:31:51;;;;;;;65.10;32.92;;;;;;;;;;5038087;28;20033;-89
2022/03/26 04:34:18;;;;;;;69.97;33.50;;;;;;;;;;5038821;28;20416;-90
2022/03/26 04:36:44;;;;;;;70.45;34.45;;;;;;;;;;5037705;28;20041;-90
2022/03/26 04:39:10;;;;;;;75.43;33.95;;;;;;;;;;5038821;28;20053;-90
2022/03/26 04:41:37;;;;;;;69.53;34.63;;;;;;;;;;5039011;28;20320;-92
2022/03/26 04:44:03;;;;;;;69.82;34.22;;;;;;;;;;5038325;28;20115;-90
2022/03/26 04:46:29;;;;;;;69.80;35.40;;;;;;;;;;5038609;28;20025;-92
2022/03/26 04:48:55;;;;;;;71.20;34.40;;;;;;;;;;5038596;28;20104;-90
2022/03/26 04:51:21;;;;;;;75.05;36.95;;;;;;;;;;5038496;28;20408;-89
2022/03/26 04:53:47;;;;;;;73.07;35.38;;;;;;;;;;5038703;28;20037;-91
2022/03/26 04:56:14;;;;;;;68.70;36.88;;;;;;;;;;5037408;28;20400;-90
2022/03/26 04:58:40;;;;;;;69.15;35.28;;;;;;;;;;5038512;28;20060;-90
2022/03/26 05:04:10;;;;;;;70.32;36.08;;;;;;;;;;5029816;28;20132;-91
2022/03/26 05:06:36;;;;;;;71.88;34.78;;;;;;;;;;5020418;28;20112;-90
2022/03/26 05:09:02;;;;;;;65.18;32.17;;;;;;;;;;5018467;28;20439;-91
2022/03/26 05:11:28;;;;;;;65.53;33.78;;;;;;;;;;5033880;28;20026;-89
2022/03/26 05:13:55;;;;;;;60.38;32.60;;;;;;;;;;5025479;28;20026;-90
2022/03/26 05:16:21;;;;;;;60.05;31.20;;;;;;;;;;5018228;28;20076;-91
2022/03/26 05:18:47;;;;;;;61.75;30.73;;;;;;;;;;5018039;28;20068;-94
2022/03/26 05:21:13;;;;;;;74.03;29.92;;;;;;;;;;5017812;28;20048;-91
2022/03/26 05:23:40;;;;;;;66.28;30.70;;;;;;;;;;5017618;28;20026;-92
2022/03/26 05:26:06;;;;;;;64.95;30.20;;;;;;;;;;5018264;28;20026;-90
2022/03/26 05:28:32;;;;;;;61.83;29.50;;;;;;;;;;5018468;28;20034;-91
2022/03/26 05:30:58;;;;;;;64.03;30.70;;;;;;;;;;5017166;28;20029;-92
2022/03/26 05:33:25;;;;;;;74.10;33.92;;;;;;;;;;5018049;28;20029;-91
2022/03/26 05:35:51;;;;;;;86.32;39.47;;;;;;;;;;5016861;28;20440;-91
2022/03/26 05:38:17;;;;;;;83.45;40.28;;;;;;;;;;5018035;28;20348;-92
2022/03/26 05:40:43;;;;;;;69.32;37.40;;;;;;;;;;5018205;28;20320;-92
2022/03/26 05:43:09;;;;;;;61.83;35.40;;;;;;;;;;5017185;28;20502;-90
2022/03/26 05:45:35;;;;;;;65.10;33.85;;;;;;;;;;5017932;28;20029;-92
2022/03/26 05:48:02;;;;;;;67.57;34.03;;;;;;;;;;5017687;28;20036;-92
2022/03/26 05:50:29;;;;;;;62.45;32.40;;;;;;;;;;5017952;28;20037;-92
2022/03/26 05:52:55;;;;;;;66.13;33.63;;;;;;;;;;5016835;28;20026;-91
2022/03/26 05:55:21;;;;;;;67.28;33.90;;;;;;;;;;5017105;28;20069;-92
2022/03/26 05:57:47;;;;;;;65.40;33.10;;;;;;;;;;5017666;28;20025;-91
2022/03/26 06:00:13;;;;;;;67.57;33.30;;;;;;;;;;5017805;28;20316;-90
2022/03/26 06:02:40;;;;;;;61.25;30.73;;;;;;;;;;5017834;28;20393;-93
2022/03/26 06:05:06;;;;;;;61.03;31.20;;;;;;;;;;5017657;28;20033;-91
2022/03/26 06:07:32;;;;;;;61.42;31.35;;;;;;;;;;5017707;28;20029;-90
2022/03/26 06:09:58;;;;;;;59.05;33.63;;;;;;;;;;5017659;28;20029;-92
2022/03/26 06:12:25;;;;;;;67.43;36.92;;;;;;;;;;5017778;28;20064;-91
2022/03/26 06:14:51;;;;;;;60.05;33.42;;;;;;;;;;5016903;28;20026;-90
2022/03/26 06:17:17;;;;;;;53.20;29.60;;;;;;;;;;5016633;28;20034;-90
2022/03/26 06:19:44;;;;;;;54.80;27.58;;;;;;;;;;5016795;28;20076;-93
2022/03/26 06:22:10;;;;;;;54.28;28.38;;;;;;;;;;5017736;28;20030;-92
2022/03/26 06:24:37;;;;;;;53.58;29.02;;;;;;;;;;5017169;28;20021;-91
2022/03/26 06:27:03;;;;;;;56.25;28.55;;;;;;;;;;5017676;28;20053;-91
2022/03/26 06:29:29;;;;;;;53.55;27.95;;;;;;;;;;5017620;28;20044;-90
2022/03/26 06:31:55;;;;;;;50.72;27.83;;;;;;;;;;5019145;28;20038;-92
2022/03/26 06:34:23;;;;;;;52.00;27.67;;;;;;;;;;5020296;28;20206;-91
2022/03/26 06:36:49;;;;;;;57.67;27.30;;;;;;;;;;5019978;28;20053;-91
2022/03/26 06:39:15;;;;;;;49.72;25.50;;;;;;;;;;5021415;28;20459;-92
2022/03/26 06:41:42;;;;;;;48.40;25.80;;;;;;;;;;5020781;28;20404;-91
2022/03/26 06:44:08;;;;;;;44.45;24.63;;;;;;;;;;5020949;28;20022;-91
2022/03/26 06:46:35;;;;;;;44.40;23.88;;;;;;;;;;5021171;28;20030;-92
2022/03/26 06:49:02;;;;;;;47.78;25.30;;;;;;;;;;5020945;28;20030;-92
2022/03/26 06:51:28;;;;;;;42.40;23.63;;;;;;;;;;5020180;28;20072;-91
2022/03/26 06:53:54;;;;;;;44.28;23.33;;;;;;;;;;5020870;28;20026;-91
2022/03/26 06:56:20;;;;;;;43.60;24.10;;;;;;;;;;5020017;28;20408;-90
2022/03/26 06:58:46;;;;;;;43.67;22.02;;;;;;;;;;5020103;28;20022;-91
2022/03/26 07:01:12;;;;;;;42.30;22.92;;;;;;;;;;5020948;28;20026;-90
2022/03/26 07:03:38;;;;;;;44.13;23.75;;;;;;;;;;5019546;28;20014;-92
2022/03/26 07:06:04;;;;;;;46.88;23.45;;;;;;;;;;5020824;28;20038;-92
2022/03/26 07:08:30;;;;;;;45.60;22.75;;;;;;;;;;5020850;28;20030;-92
2022/03/26 07:10:57;;;;;;;47.60;24.50;;;;;;;;;;5019972;28;20034;-91
2022/03/26 07:13:24;;;;;;;42.17;23.75;;;;;;;;;;5020682;28;20473;-93
2022/03/26 07:15:50;;;;;;;45.63;22.77;;;;;;;;;;5020731;28;20033;-92
2022/03/26 07:18:16;;;;;;;50.38;24.00;;;;;;;;;;5019931;28;20116;-92
2022/03/26 07:20:42;;;;;;;41.42;23.20;;;;;;;;;;5020609;28;20029;-92
2022/03/26 07:23:08;;;;;;;42.65;22.98;;;;;;;;;;5019520;28;20026;-92
2022/03/26 07:25:35;;;;;;;43.55;23.27;;;;;;;;;;5019488;28;20409;-92
2022/03/26 07:28:01;;;;;;;38.17;22.02;;;;;;;;;;5020142;28;20044;-91
2022/03/26 07:30:27;;;;;;;40.50;22.75;;;;;;;;;;5019914;28;20467;-93
2022/03/26 07:32:53;;;;;;;36.13;21.45;;;;;;;;;;5020034;28;20022;-93
2022/03/26 07:35:20;;;;;;;41.13;21.52;;;;;;;;;;5019444;28;20041;-91
2022/03/26 07:37:46;;;;;;;37.42;21.02;;;;;;;;;;5019488;28;20041;-91
2022/03/26 07:40:13;;;;;;;34.08;19.88;;;;;;;;;;5019934;28;20037;-93
2022/03/26 07:42:39;;;;;;;38.33;20.45;;;;;;;;;;5019373;28;20026;-92
2022/03/26 07:45:06;;;;;;;38.20;21.50;;;;;;;;;;5020255;28;20025;-91
2022/03/26 07:47:35;;;;;;;44.28;21.65;;;;;;;;;;5019957;28;20053;-92
2022/03/26 07:50:02;;;;;;;41.33;24.45;;;;;;;;;;5020102;28;20136;-92
2022/03/26 07:52:28;;;;;;;45.13;24.25;;;;;;;;;;5019750;28;20052;-93
2022/03/26 07:54:54;;;;;;;43.80;25.40;;;;;;;;;;5020210;28;20096;-92
2022/03/26 07:57:20;;;;;;;50.00;26.67;;;;;;;;;;5019127;28;20084;-91
2022/03/26 07:59:46;;;;;;;46.63;28.60;;;;;;;;;;5019816;28;20040;-91
2022/03/26 08:02:12;;;;;;;51.88;25.55;;;;;;;;;;5019840;28;20068;-91
2022/03/26 08:04:38;;;;;;;63.90;36.90;;;;;;;;;;5019768;28;20034;-91
2022/03/26 08:07:05;;;;;;;42.78;24.20;;;;;;;;;;5018795;28;20030;-94
2022/03/26 08:09:31;;;;;;;47.75;23.63;;;;;;;;;;5019763;28;20026;-91
2022/03/26 08:11:57;;;;;;;38.10;19.67;;;;;;;;;;5018897;28;20062;-93
2022/03/26 08:14:23;;;;;;;35.22;19.25;;;;;;;;;;5018909;28;20369;-92
2022/03/26 08:16:49;;;;;;;41.65;21.88;;;;;;;;;;5019400;28;20083;-92
2022/03/26 08:19:16;;;;;;;44.70;22.23;;;;;;;;;;5019501;28;20014;-93
2022/03/26 08:21:43;;;;;;;37.45;20.83;;;;;;;;;;5019163;28;20022;-91
2022/03/26 08:24:09;;;;;;;36.17;20.35;;;;;;;;;;5019679;28;20026;-93
2022/03/26 08:26:35;;;;;;;34.65;19.55;;;;;;;;;;5019135;28;20037;-92
2022/03/26 08:29:01;;;;;;;34.72;18.92;;;;;;;;;;5018768;28;20061;-93
2022/03/26 08:31:29;;;;;;;33.70;20.38;;;;;;;;;;5018625;28;20117;-92
2022/03/26 08:33:55;;;;;;;37.45;18.92;;;;;;;;;;5019336;28;20022;-92
2022/03/26 08:36:21;;;;;;;34.72;19.05;;;;;;;;;;5019759;28;20038;-92
2022/03/26 08:38:48;;;;;;;34.47;19.50;;;;;;;;;;5019186;28;20029;-92
2022/03/26 08:41:15;;;;;;;34.65;18.85;;;;;;;;;;5018401;28;20408;-91
2022/03/26 08:43:41;;;;;;;41.88;19.00;;;;;;;;;;5018322;28;20065;-93
2022/03/26 08:46:07;;;;;;;34.22;19.52;;;;;;;;;;5018884;28;20072;-92
2022/03/26 08:48:34;;;;;;;38.83;20.40;;;;;;;;;;5018872;28;20026;-92
2022/03/26 08:51:00;;;;;;;33.67;18.08;;;;;;;;;;5018946;28;20468;-91
2022/03/26 08:53:27;;;;;;;35.47;18.02;;;;;;;;;;5018416;28;20030;-93
2022/03/26 08:55:53;;;;;;;36.25;17.83;;;;;;;;;;5019472;28;20109;-92
2022/03/26 08:58:20;;;;;;;31.60;17.67;;;;;;;;;;5018644;28;20033;-93
2022/03/26 09:00:51;;;;;;;31.75;18.50;;;;;;;;;;5017744;28;20431;-92
2022/03/26 09:03:21;;;;;;;29.17;14.95;;;;;;;;;;5018644;28;20105;-94
2022/03/26 09:05:50;;;;;;;30.15;16.02;;;;;;;;;;5018594;28;20036;-93
2022/03/26 09:08:16;;;;;;;25.92;16.15;;;;;;;;;;5018738;28;20030;-93
2022/03/26 09:10:42;;;;;;;25.85;14.73;;;;;;;;;;5018619;28;20025;-92
2022/03/26 09:13:08;;;;;;;29.02;15.52;;;;;;;;;;5017845;28;20408;-94
2022/03/26 09:15:35;;;;;;;27.55;15.00;;;;;;;;;;5018314;28;20033;-91
2022/03/26 09:18:01;;;;;;;27.52;14.27;;;;;;;;;;5018542;28;20034;-93
2022/03/26 09:20:27;;;;;;;22.55;12.90;;;;;;;;;;5018632;28;20412;-92
2022/03/26 09:22:53;;;;;;;20.30;11.90;;;;;;;;;;5019667;28;20029;-92
2022/03/26 09:25:20;;;;;;;25.45;12.95;;;;;;;;;;5020557;28;20022;-95
2022/03/26 09:27:47;;;;;;;27.92;13.48;;;;;;;;;;5018692;28;20030;-92
2022/03/26 09:30:15;;;;;;;28.20;15.45;;;;;;;;;;5018869;28;20025;-91
2022/03/26 09:32:41;;;;;;;39.42;19.25;;;;;;;;;;5019228;28;20389;-92
2022/03/26 09:35:08;;;;;;;30.88;16.83;;;;;;;;;;5018061;28;20029;-94
2022/03/26 09:37:34;;;;;;;33.63;18.75;;;;;;;;;;5019067;28;20049;-95
2022/03/26 09:40:02;;;;;;;30.00;14.52;;;;;;;;;;5019448;28;20026;-91
2022/03/26 09:42:28;;;;;;;24.70;11.93;;;;;;;;;;5019146;28;20109;-92
2022/03/26 09:44:56;;;;;;;36.75;19.35;;;;;;;;;;5019072;28;20116;-93
2022/03/26 09:47:23;;;;;;;24.98;13.43;;;;;;;;;;5018785;28;20034;-92
2022/03/26 09:49:49;;;;;;;29.20;12.68;;;;;;;;;;5017998;28;20116;-92
2022/03/26 09:52:15;;;;;;;17.92;10.73;;;;;;;;;;5018453;28;20018;-92
2022/03/26 09:54:41;;;;;;;29.35;14.10;;;;;;;;;;5017868;28;20324;-91
2022/03/26 09:57:08;;;;;;;24.90;11.80;;;;;;;;;;5018797;28;20033;-92
2022/03/26 09:59:34;;;;;;;18.80;11.48;;;;;;;;;;5017832;28;20038;-92
2022/03/26 10:02:02;;;;;;;25.02;11.23;;;;;;;;;;5018958;28;20057;-91
2022/03/26 10:04:37;;;;;;;15.48;9.18;;;;;;;;;;5019252;28;20057;-92
2022/03/26 10:07:04;;;;;;;15.77;7.95;;;;;;;;;;5021398;28;20037;-93
2022/03/26 10:09:30;;;;;;;16.05;9.60;;;;;;;;;;5023837;28;20026;-90
2022/03/26 10:12:02;;;;;;;16.77;8.00;;;;;;;;;;5023438;28;20030;-92
2022/03/26 10:14:28;;;;;;;;;;;;;;;;;;5022236;28;20065;-92
2022/03/26 10:16:54;;;;;;;16.75;8.25;;;;;;;;;;5021412;28;20207;-93
2022/03/26 10:19:23;;;;;;;16.48;8.85;;;;;;;;;;5022173;28;20030;-93
2022/03/26 10:21:49;;;;;;;20.05;9.70;;;;;;;;;;5022693;28;20030;-93
2022/03/26 10:24:16;;;;;;;15.52;8.95;;;;;;;;;;5022357;28;20033;-92
2022/03/26 10:26:42;;;;;;;13.10;7.70;;;;;;;;;;5022401;28;20033;-92
2022/03/26 10:29:10;;;;;;;14.52;7.65;;;;;;;;;;5021045;28;20080;-91
2022/03/26 10:34:23;;;;;;;17.55;8.57;;;;;;;;;;5025826;28;20041;-93
2022/03/26 10:37:01;;;;;;;13.60;7.15;;;;;;;;;;5021566;28;20124;-93
2022/03/26 10:39:28;;;;;;;12.35;8.02;;;;;;;;;;5021061;28;20030;-93
2022/03/26 10:41:54;;;;;;;14.50;7.00;;;;;;;;;;5020709;28;20442;-93
2022/03/26 10:44:30;;;;;;;19.25;6.50;;;;;;;;;;5021540;28;20017;-92
2022/03/26 10:46:57;;;;;;;12.38;6.88;;;;;;;;;;5021289;28;20026;-93
2022/03/26 10:49:27;;;;;;;10.85;6.20;;;;;;;;;;5021287;28;20030;-93
2022/03/26 10:51:54;;;;;;;11.55;6.18;;;;;;;;;;5021029;28;20030;-93
2022/03/26 10:54:27;;;;;;;12.57;5.97;;;;;;;;;;5021081;28;20380;-93
2022/03/26 10:56:54;;;;;;;17.25;7.60;;;;;;;;;;5020602;28;20096;-92
2022/03/26 10:59:21;;;;;;;11.88;6.00;;;;;;;;;;5021421;28;20061;-92
2022/03/26 11:01:47;;;;;;;12.00;6.35;;;;;;;;;;5020663;28;20416;-92
2022/03/26 11:04:13;;;;;;;8.32;6.28;;;;;;;;;;5020752;28;20232;-93
2022/03/26 11:06:39;;;;;;;11.98;6.38;;;;;;;;;;5020075;28;20026;-93
2022/03/26 11:09:06;;;;;;;10.00;5.90;;;;;;;;;;5019756;28;20025;-93
2022/03/26 11:11:35;;;;;;;9.75;5.32;;;;;;;;;;5020762;28;20029;-92
2022/03/26 11:14:04;;;;;;;12.48;4.60;;;;;;;;;;5021020;28;20049;-93
2022/03/26 11:16:50;;;;;;;12.73;5.10;;;;;;;;;;5020358;28;20033;-93
2022/03/26 11:19:22;;;;;;;8.38;5.70;;;;;;;;;;5021614;28;20069;-93
2022/03/26 11:21:49;;;;;;;12.93;5.63;;;;;;;;;;5021347;28;20376;-94
2022/03/26 11:24:16;;;;;;;16.17;5.82;;;;;;;;;;5020337;28;20076;-92
2022/03/26 11:27:00;;;;;;;8.55;4.72;;;;;;;;;;5021077;28;20030;-93
2022/03/26 11:29:32;;;;;;;13.20;6.80;;;;;;;;;;5021074;28;20034;-93
2022/03/26 11:32:01;;;;;;;17.85;6.47;;;;;;;;;;5020229;28;20030;-92
2022/03/26 11:34:32;;;;;;;12.75;5.43;;;;;;;;;;5019916;28;20029;-91
2022/03/26 11:37:08;;;;;;;8.93;4.93;;;;;;;;;;5020591;28;20385;-92
2022/03/26 11:39:43;;;;;;;8.73;4.90;;;;;;;;;;5021130;28;20042;-92
2022/03/26 11:42:10;;;;;;;9.32;4.60;;;;;;;;;;5019784;28;20420;-92
2022/03/26 11:44:37;;;;;;;8.77;5.60;;;;;;;;;;5019914;28;20298;-94
2022/03/26 11:53:08;;;;;;;9.60;4.75;;;;;;;;;;5020703;28;20109;-93
2022/03/26 11:55:43;;;;;;;9.27;4.45;;;;;;;;;;5020819;28;20049;-93
2022/03/26 11:58:21;;;;;;;13.73;5.63;;;;;;;;;;5020280;28;20038;-92
2022/03/26 12:00:55;;;;;;;12.07;4.90;;;;;;;;;;5019417;28;20419;-93
2022/03/26 12:03:21;;;;;;;12.00;5.00;;;;;;;;;;5020219;28;20114;-92
2022/03/26 12:18:14;;;;;;;8.73;4.72;;;;;;;;;;5095168;27;20419;-94
2022/03/26 12:20:49;;;;;;;9.95;4.72;;;;;;;;;;5095022;28;20086;-93
2022/03/26 12:23:15;;;;;;;7.88;4.57;;;;;;;;;;5094095;28;20017;-94
2022/03/26 12:25:49;;;;;;;8.35;4.65;;;;;;;;;;5096691;28;20055;-94
2022/03/26 12:28:17;;;;;;;9.93;4.75;;;;;;;;;;5094620;28;20043;-93
2022/03/26 12:30:50;;;;;;;10.95;5.30;;;;;;;;;;5095611;28;20020;-94
2022/03/26 12:33:17;;;;;;;11.45;4.70;;;;;;;;;;5095574;28;20082;-93
2022/03/26 12:35:44;;;;;;;12.35;5.20;;;;;;;;;;5094746;28;20082;-94
2022/03/26 12:38:10;;;;;;;7.95;4.78;;;;;;;;;;5094259;28;20039;-93
2022/03/26 12:40:38;;;;;;;10.15;4.53;;;;;;;;;;5093540;28;20027;-94
2022/03/26 12:43:05;;;;;;;9.82;4.38;;;;;;;;;;5094631;28;20063;-94
2022/03/26 12:45:31;;;;;;;7.65;4.70;;;;;;;;;;5094693;28;20160;-95
2022/03/26 12:48:04;;;;;;;8.98;4.00;;;;;;;;;;5094305;28;20028;-94
2022/03/26 12:50:37;;;;;;;12.23;4.32;;;;;;;;;;5094588;28;20028;-94
2022/03/26 12:53:07;;;;;;;12.98;6.65;;;;;;;;;;5094289;28;20452;-93
2022/03/26 12:55:35;;;;;;;11.27;4.82;;;;;;;;;;5094319;28;20020;-94
2022/03/26 13:00:58;;;;;;;15.18;7.57;;;;;;;;;;5094399;28;20048;-93
2022/03/26 13:03:27;;;;;;;13.30;6.18;;;;;;;;;;5094390;28;20111;-95
2022/03/26 13:05:53;;;;;;;10.77;5.40;;;;;;;;;;5093446;28;20421;-94
2022/03/26 13:08:21;;;;;;;9.50;4.78;;;;;;;;;;5094075;28;20432;-94
2022/03/26 13:10:47;;;;;;;9.05;4.38;;;;;;;;;;5094319;28;20028;-95
2022/03/26 13:13:13;;;;;;;11.18;5.00;;;;;;;;;;5094076;28;20051;-93
2022/03/26 13:15:39;;;;;;;8.10;3.75;;;;;;;;;;5092969;28;20028;-94
2022/03/26 13:18:10;;;;;;;8.88;4.95;;;;;;;;;;5083940;28;20025;-95
2022/03/26 13:20:40;;;;;;;11.32;4.65;;;;;;;;;;5079937;28;20044;-94
2022/03/26 13:23:13;;;;;;;10.68;4.93;;;;;;;;;;5080199;28;20127;-94
2022/03/26 13:25:40;;;;;;;9.98;4.70;;;;;;;;;;5081280;28;20111;-93
2022/03/26 13:28:14;;;;;;;9.25;4.20;;;;;;;;;;5079794;28;20136;-94
2022/03/26 13:43:17;;;;;;;11.45;4.43;;;;;;;;;;5096456;27;20402;-94
2022/03/26 13:45:44;;;;;;;10.60;5.20;;;;;;;;;;5094898;28;20036;-96
2022/03/26 13:48:11;;;;;;;13.20;5.78;;;;;;;;;;5094925;28;20352;-94
2022/03/26 13:50:38;;;;;;;9.30;4.63;;;;;;;;;;5095336;28;20325;-95
2022/03/26 13:53:04;;;;;;;13.30;4.35;;;;;;;;;;5095300;28;20027;-94
2022/03/26 13:55:30;;;;;;;11.73;5.10;;;;;;;;;;5094132;28;20019;-94
2022/03/26 13:58:00;;;;;;;10.38;4.60;;;;;;;;;;5094778;28;20042;-94
2022/03/26 14:00:29;;;;;;;9.45;4.18;;;;;;;;;;5094952;28;20025;-95
2022/03/26 14:02:55;;;;;;;11.85;4.43;;;;;;;;;;5093887;28;20115;-94
2022/03/26 14:05:28;;;;;;;9.68;3.67;;;;;;;;;;5095145;28;20021;-94
2022/03/26 14:08:01;;;;;;;14.88;4.95;;;;;;;;;;5094813;28;20369;-95
2022/03/26 14:10:47;;;;;;;11.13;5.30;;;;;;;;;;5094529;28;20020;-93
2022/03/26 14:13:13;;;;;;;9.90;4.75;;;;;;;;;;5094485;28;20028;-94
2022/03/26 14:15:40;;;;;;;11.73;4.82;;;;;;;;;;5094659;28;20017;-94
2022/03/26 14:18:08;;;;;;;12.68;5.85;;;;;;;;;;5093431;28;20016;-94
2022/03/26 14:20:34;;;;;;;9.80;5.22;;;;;;;;;;5094091;28;20016;-95
2022/03/26 14:23:03;;;;;;;8.57;4.28;;;;;;;;;;5094664;28;20024;-95
2022/03/26 14:25:30;;;;;;;8.38;4.72;;;;;;;;;;5093736;28;20040;-94
2022/03/26 14:27:57;;;;;;;9.77;3.88;;;;;;;;;;5094314;28;20016;-95
2022/03/26 14:30:24;;;;;;;7.68;4.22;;;;;;;;;;5094554;28;20020;-94
2022/03/26 14:32:50;;;;;;;12.60;4.07;;;;;;;;;;5093571;28;20024;-95
2022/03/26 14:35:16;;;;;;;10.77;4.22;;;;;;;;;;5093848;28;20130;-94
2022/03/26 14:37:42;;;;;;;7.40;3.50;;;;;;;;;;5094193;28;20024;-94
2022/03/26 14:40:09;;;;;;;6.53;3.88;;;;;;;;;;5094226;28;20051;-94
2022/03/26 14:42:35;;;;;;;8.27;4.82;;;;;;;;;;5089181;28;20071;-93
2022/03/26 14:45:01;;;;;;;9.32;4.13;;;;;;;;;;5080108;28;20477;-94
2022/03/26 14:47:27;;;;;;;10.93;4.57;;;;;;;;;;5079477;28;20414;-95
2022/03/26 14:49:53;;;;;;;8.73;4.55;;;;;;;;;;5079586;28;20033;-94
2022/03/26 14:52:21;;;;;;;12.25;5.57;;;;;;;;;;5080505;28;20025;-94
2022/03/26 14:54:47;;;;;;;8.50;4.60;;;;;;;;;;5079455;28;20039;-93
2022/03/26 14:57:13;;;;;;;10.77;3.53;;;;;;;;;;5080399;28;20048;-95
2022/03/26 14:59:39;;;;;;;7.32;3.20;;;;;;;;;;5079393;28;20111;-95
2022/03/26 15:02:06;;;;;;;7.07;3.63;;;;;;;;;;5080003;28;20115;-93